Time;durP1;ratioP1;P1;durP2;ratioP2;P2;SDS_P1;SDS_P2;PMS_P1;PMS_P2;Temp;Humidity;BMP_temperature;BMP_pressure;BME280_temperature;BME280_humidity;BME280_pressure;Samples;Min_cycle;Max_cycle;Signal;HPM_P1;HPM_P2
2022/07/01 04:02:16;;;;;;;1999.90;999.90;;;;;;;;;;6204575;22;1252208;-71
2022/07/01 04:05:01;;;;;;;1999.90;999.90;;;;;;;;;;6275531;22;20918;-71
2022/07/01 04:07:46;;;;;;;1999.90;999.90;;;;;;;;;;6275512;22;20299;-71
2022/07/01 04:10:32;;;;;;;1999.90;999.90;;;;;;;;;;6272929;22;20168;-71
2022/07/01 04:13:17;;;;;;;1999.90;999.90;;;;;;;;;;6245027;23;20667;-70
2022/07/01 04:16:02;;;;;;;1999.90;999.90;;;;;;;;;;6244142;23;20176;-69
2022/07/01 04:18:49;;;;;;;1999.90;999.90;;;;;;;;;;6244757;23;20165;-71
2022/07/01 04:24:36;;;;;;;1999.90;999.90;;;;;;;;;;6245128;23;20190;-70
2022/07/01 04:27:22;;;;;;;1999.90;999.90;;;;;;;;;;6244582;23;20500;-72
2022/07/01 04:30:08;;;;;;;1999.90;999.90;;;;;;;;;;6243635;23;20165;-69
2022/07/01 04:32:53;;;;;;;1999.90;999.90;;;;;;;;;;6243143;23;20165;-69
2022/07/01 04:35:41;;;;;;;1999.90;999.90;;;;;;;;;;6242858;23;20373;-73
2022/07/01 04:38:26;;;;;;;1999.90;999.90;;;;;;;;;;6244636;23;20212;-71
2022/07/01 04:44:14;;;;;;;1999.90;999.90;;;;;;;;;;6244254;23;20167;-70
2022/07/01 04:46:59;;;;;;;1999.90;999.90;;;;;;;;;;6243540;23;20634;-71
2022/07/01 04:49:44;;;;;;;1999.90;999.90;;;;;;;;;;6242914;23;20243;-71
2022/07/01 04:52:30;;;;;;;1999.90;999.90;;;;;;;;;;6241673;22;20544;-70
2022/07/01 04:55:15;;;;;;;1999.90;999.90;;;;;;;;;;6244763;23;20227;-70
2022/07/01 04:58:00;;;;;;;1999.90;999.90;;;;;;;;;;6244440;23;20551;-71
2022/07/01 05:00:48;;;;;;;1999.90;999.90;;;;;;;;;;6248676;22;20204;-71
2022/07/01 05:03:34;;;;;;;1999.90;999.90;;;;;;;;;;6306220;22;20163;-71
2022/07/01 05:06:19;;;;;;;1999.90;999.90;;;;;;;;;;6306210;22;20163;-70
2022/07/01 05:09:05;;;;;;;1999.90;999.90;;;;;;;;;;6305751;22;20685;-71
2022/07/01 05:11:50;;;;;;;1999.90;999.90;;;;;;;;;;6305858;22;20268;-71
2022/07/01 05:14:35;;;;;;;1999.90;999.90;;;;;;;;;;6306217;22;20511;-71
2022/07/01 05:21:55;;;;;;;1999.90;999.90;;;;;;;;;;6306195;22;20167;-71
2022/07/01 05:23:28;;;;;;;1999.90;999.90;;;;;;;;;;6305137;22;20179;-70
2022/07/01 05:26:17;;;;;;;1999.90;999.90;;;;;;;;;;6306086;22;20164;-71
2022/07/01 05:29:02;;;;;;;1999.90;999.90;;;;;;;;;;6305614;22;20183;-70
2022/07/01 05:31:47;;;;;;;1999.90;999.90;;;;;;;;;;6305912;22;20222;-69
2022/07/01 05:34:32;;;;;;;1999.90;999.90;;;;;;;;;;6305907;22;20193;-71
2022/07/01 05:37:19;;;;;;;1999.90;999.90;;;;;;;;;;6305980;22;20203;-70
2022/07/01 05:40:05;;;;;;;1999.90;999.90;;;;;;;;;;6305646;22;20246;-70
2022/07/01 05:42:51;;;;;;;1999.90;999.90;;;;;;;;;;6305805;22;20191;-71
2022/07/01 05:45:36;;;;;;;1999.90;999.90;;;;;;;;;;6305906;22;20209;-72
2022/07/01 05:48:22;;;;;;;1999.90;999.90;;;;;;;;;;6306064;22;20489;-72
2022/07/01 05:51:07;;;;;;;1999.90;999.90;;;;;;;;;;6305689;22;20238;-71
2022/07/01 05:53:52;;;;;;;1999.90;999.90;;;;;;;;;;6305994;22;20179;-71
2022/07/01 05:56:36;;;;;;;1999.90;999.90;;;;;;;;;;6305992;22;20167;-71
2022/07/01 05:59:23;;;;;;;1999.90;999.90;;;;;;;;;;6303703;22;20474;-70
2022/07/01 06:02:07;;;;;;;1999.90;999.90;;;;;;;;;;6304764;22;20440;-72
2022/07/01 06:04:52;;;;;;;1999.90;999.90;;;;;;;;;;6305765;22;20164;-71
2022/07/01 06:07:38;;;;;;;1999.90;999.90;;;;;;;;;;6305578;22;20163;-72
2022/07/01 06:10:23;;;;;;;1999.90;999.90;;;;;;;;;;6305658;22;20164;-71
2022/07/01 06:13:08;;;;;;;1999.90;999.90;;;;;;;;;;6305018;22;20370;-72
2022/07/01 06:15:57;;;;;;;1999.90;999.90;;;;;;;;;;6305819;22;20629;-70
2022/07/01 06:18:42;;;;;;;1999.90;999.90;;;;;;;;;;6305465;22;20253;-71
2022/07/01 06:21:27;;;;;;;1999.90;999.90;;;;;;;;;;6305577;22;20528;-71
2022/07/01 06:24:12;;;;;;;1999.90;999.90;;;;;;;;;;6307577;22;20610;-71
2022/07/01 06:26:56;;;;;;;1999.90;999.90;;;;;;;;;;6307899;22;20421;-71
2022/07/01 06:29:41;;;;;;;1999.90;999.90;;;;;;;;;;6307526;22;20162;-71
2022/07/01 06:32:28;;;;;;;1999.90;999.90;;;;;;;;;;6308082;22;20233;-72
2022/07/01 06:35:12;;;;;;;1999.90;999.90;;;;;;;;;;6308002;22;20502;-71
2022/07/01 06:37:57;;;;;;;1999.90;999.90;;;;;;;;;;6307336;22;20167;-71
2022/07/01 06:40:42;;;;;;;1999.90;999.90;;;;;;;;;;6307593;22;20273;-72
2022/07/01 06:43:27;;;;;;;1999.90;999.90;;;;;;;;;;6307973;22;20206;-71
2022/07/01 06:46:12;;;;;;;1999.90;999.90;;;;;;;;;;6307624;22;20167;-72
2022/07/01 06:48:59;;;;;;;1999.90;999.90;;;;;;;;;;6307228;22;20241;-73
2022/07/01 06:51:44;;;;;;;1999.90;999.90;;;;;;;;;;6307560;22;20242;-71
2022/07/01 06:54:29;;;;;;;1999.90;999.90;;;;;;;;;;6307641;22;20642;-72
2022/07/01 06:57:14;;;;;;;1999.90;999.90;;;;;;;;;;6307552;22;20559;-71
2022/07/01 06:59:58;;;;;;;1999.90;999.90;;;;;;;;;;6307257;22;20605;-70
2022/07/01 07:02:44;;;;;;;1999.90;999.90;;;;;;;;;;6306087;22;20387;-71
2022/07/01 07:05:30;;;;;;;1999.90;999.90;;;;;;;;;;6306532;22;20783;-70
2022/07/01 07:08:15;;;;;;;1999.90;999.90;;;;;;;;;;6306707;22;20678;-70
2022/07/01 07:11:00;;;;;;;1999.90;999.90;;;;;;;;;;6307017;22;20203;-71
2022/07/01 07:13:45;;;;;;;1999.90;999.90;;;;;;;;;;6307182;22;20457;-71
2022/07/01 07:16:30;;;;;;;1999.90;999.90;;;;;;;;;;6307102;22;20546;-72
2022/07/01 07:19:15;;;;;;;1999.90;999.90;;;;;;;;;;6306712;22;20170;-71
2022/07/01 07:22:01;;;;;;;1999.90;999.90;;;;;;;;;;6306285;22;20218;-72
2022/07/01 07:24:46;;;;;;;1999.90;999.90;;;;;;;;;;6306871;22;20166;-72
2022/07/01 07:27:31;;;;;;;1999.90;999.90;;;;;;;;;;6307214;22;20168;-71
2022/07/01 07:30:16;;;;;;;1999.90;999.90;;;;;;;;;;6307310;22;20226;-71
2022/07/01 07:33:01;;;;;;;1999.90;999.90;;;;;;;;;;6306959;22;20212;-72
2022/07/01 07:35:46;;;;;;;1999.90;999.90;;;;;;;;;;6305926;22;20452;-71
2022/07/01 07:38:32;;;;;;;1999.90;999.90;;;;;;;;;;6307212;22;20183;-72
2022/07/01 07:41:17;;;;;;;1999.90;999.90;;;;;;;;;;6306986;22;20203;-71
2022/07/01 07:44:02;;;;;;;1999.90;999.90;;;;;;;;;;6307154;22;20203;-72
2022/07/01 07:46:47;;;;;;;1999.90;999.90;;;;;;;;;;6307515;22;20497;-71
2022/07/01 07:49:31;;;;;;;1999.90;999.90;;;;;;;;;;6306658;22;20378;-70
2022/07/01 07:52:16;;;;;;;1999.90;999.90;;;;;;;;;;6306962;22;20304;-70
2022/07/01 07:55:03;;;;;;;1999.90;999.90;;;;;;;;;;6305314;22;20237;-69
2022/07/01 07:57:49;;;;;;;1999.90;999.90;;;;;;;;;;6305315;22;20160;-69
2022/07/01 08:00:34;;;;;;;1999.90;999.90;;;;;;;;;;6305129;22;20234;-71
2022/07/01 08:03:19;;;;;;;1999.90;999.90;;;;;;;;;;6305696;22;20230;-73
2022/07/01 08:06:04;;;;;;;1999.90;999.90;;;;;;;;;;6305444;22;20253;-72
2022/07/01 08:08:49;;;;;;;1999.90;999.90;;;;;;;;;;6305243;22;20168;-70
2022/07/01 08:11:35;;;;;;;1999.90;999.90;;;;;;;;;;6305438;22;20202;-73
2022/07/01 08:14:20;;;;;;;1999.90;999.90;;;;;;;;;;6304611;22;20172;-72
2022/07/01 08:17:05;;;;;;;1999.90;999.90;;;;;;;;;;6305057;22;20171;-73
2022/07/01 08:19:50;;;;;;;1999.90;999.90;;;;;;;;;;6303029;22;20164;-74
2022/07/01 08:22:35;;;;;;;1999.90;999.90;;;;;;;;;;6303421;22;20293;-73
2022/07/01 08:25:20;;;;;;;1999.90;999.90;;;;;;;;;;6303444;22;20171;-73
2022/07/01 08:28:07;;;;;;;1999.90;999.90;;;;;;;;;;6303042;22;20216;-70
2022/07/01 08:30:52;;;;;;;1999.90;999.90;;;;;;;;;;6301444;22;20374;-71
2022/07/01 08:33:38;;;;;;;1999.90;999.90;;;;;;;;;;6303011;22;20279;-70
2022/07/01 08:36:23;;;;;;;1999.90;999.90;;;;;;;;;;6303304;22;20761;-70
2022/07/01 08:39:08;;;;;;;1999.90;999.90;;;;;;;;;;6302981;22;20217;-69
2022/07/01 08:41:53;;;;;;;1999.90;999.90;;;;;;;;;;6303017;22;20199;-72
2022/07/01 08:44:39;;;;;;;1999.90;999.90;;;;;;;;;;6303407;22;20613;-73
2022/07/01 08:47:24;;;;;;;1999.90;999.90;;;;;;;;;;6304182;22;20164;-72
2022/07/01 08:50:09;;;;;;;1999.90;999.90;;;;;;;;;;6304008;22;20175;-71
2022/07/01 08:52:55;;;;;;;1999.90;999.90;;;;;;;;;;6304245;22;20165;-71
2022/07/01 08:58:39;;;;;;;1999.90;999.90;;;;;;;;;;6303095;22;20357;-72
2022/07/01 09:01:27;;;;;;;1999.90;999.90;;;;;;;;;;6301678;22;20397;-72
2022/07/01 09:04:16;;;;;;;1999.90;999.90;;;;;;;;;;6304415;22;20566;-72
2022/07/01 09:07:03;;;;;;;1999.90;999.90;;;;;;;;;;6303657;22;20633;-72
2022/07/01 09:09:48;;;;;;;1999.90;999.90;;;;;;;;;;6303885;22;20170;-72
2022/07/01 09:12:39;;;;;;;1999.90;999.90;;;;;;;;;;6304125;22;20602;-71
2022/07/01 09:15:28;;;;;;;1999.90;999.90;;;;;;;;;;6303751;22;20373;-74
2022/07/01 09:18:16;;;;;;;1999.90;999.90;;;;;;;;;;6304093;22;20168;-72
2022/07/01 09:21:01;;;;;;;1999.90;999.90;;;;;;;;;;6303832;22;20278;-72
2022/07/01 09:23:47;;;;;;;1999.90;999.90;;;;;;;;;;6303624;22;20235;-72
2022/07/01 09:26:32;;;;;;;1999.90;999.90;;;;;;;;;;6304252;22;20173;-71
2022/07/01 09:29:17;;;;;;;1999.90;999.90;;;;;;;;;;6303754;22;20214;-72
2022/07/01 09:32:03;;;;;;;1999.90;999.90;;;;;;;;;;6302603;22;20207;-72
2022/07/01 09:34:50;;;;;;;1999.90;999.90;;;;;;;;;;6302542;22;20160;-71
2022/07/01 09:37:35;;;;;;;1999.90;999.90;;;;;;;;;;6302517;22;20203;-71
2022/07/01 09:40:20;;;;;;;1999.90;999.90;;;;;;;;;;6302646;22;20230;-72
2022/07/01 09:43:05;;;;;;;1999.90;999.90;;;;;;;;;;6302766;22;20195;-72
2022/07/01 09:45:51;;;;;;;1999.90;999.90;;;;;;;;;;6302676;22;20171;-72
2022/07/01 09:48:43;;;;;;;1999.90;999.90;;;;;;;;;;6303762;22;20246;-71
2022/07/01 09:51:30;;;;;;;1999.90;999.90;;;;;;;;;;6304802;22;20215;-71
2022/07/01 09:54:15;;;;;;;1999.90;999.90;;;;;;;;;;6303622;22;20501;-71
2022/07/01 09:57:00;;;;;;;1999.90;999.90;;;;;;;;;;6302145;22;20168;-70
2022/07/01 09:59:45;;;;;;;1999.90;999.90;;;;;;;;;;6301740;22;20175;-72
2022/07/01 10:02:31;;;;;;;1999.90;999.90;;;;;;;;;;6302087;22;20382;-72
2022/07/01 10:05:18;;;;;;;1999.90;999.90;;;;;;;;;;6303712;22;20164;-72
2022/07/01 10:08:11;;;;;;;1999.90;999.90;;;;;;;;;;6302872;22;20207;-71
2022/07/01 10:11:02;;;;;;;1999.90;999.90;;;;;;;;;;6303506;22;20202;-73
2022/07/01 10:13:47;;;;;;;1999.90;999.90;;;;;;;;;;6303752;22;20242;-73
2022/07/01 10:16:33;;;;;;;1999.90;999.90;;;;;;;;;;6303452;22;20507;-73
2022/07/01 10:19:28;;;;;;;1999.90;999.90;;;;;;;;;;6303448;22;20170;-73
2022/07/01 10:22:27;;;;;;;1999.90;999.90;;;;;;;;;;6303702;22;20199;-73
2022/07/01 10:25:31;;;;;;;1999.90;999.90;;;;;;;;;;6303765;22;20513;-73
2022/07/01 10:28:22;;;;;;;1999.90;999.90;;;;;;;;;;6303305;22;20213;-72
2022/07/01 10:31:11;;;;;;;1999.90;999.90;;;;;;;;;;6302545;22;20292;-72
2022/07/01 10:33:57;;;;;;;1999.90;999.90;;;;;;;;;;6302891;22;20865;-71
2022/07/01 10:36:42;;;;;;;1999.90;999.90;;;;;;;;;;6302253;22;20176;-72
2022/07/01 10:39:28;;;;;;;1999.90;999.90;;;;;;;;;;6302052;22;20167;-70
2022/07/01 10:42:13;;;;;;;1999.90;999.90;;;;;;;;;;6302597;22;20282;-70
2022/07/01 10:45:04;;;;;;;1999.90;999.90;;;;;;;;;;6302998;22;20164;-71
2022/07/01 10:47:49;;;;;;;1999.90;999.90;;;;;;;;;;6303487;22;20184;-70
2022/07/01 10:50:38;;;;;;;1999.90;999.90;;;;;;;;;;6301102;22;20359;-70
2022/07/01 10:53:23;;;;;;;1999.90;999.90;;;;;;;;;;6303328;22;20166;-71
2022/07/01 10:56:08;;;;;;;1999.90;999.90;;;;;;;;;;6303453;22;20169;-71
2022/07/01 10:59:01;;;;;;;1999.90;999.90;;;;;;;;;;6302958;22;20208;-72
2022/07/01 11:01:48;;;;;;;1999.90;999.90;;;;;;;;;;6302221;22;20211;-71
2022/07/01 11:04:37;;;;;;;1999.90;999.90;;;;;;;;;;6303227;22;20196;-71
2022/07/01 11:07:24;;;;;;;1999.90;999.90;;;;;;;;;;6303488;22;20164;-71
2022/07/01 11:10:10;;;;;;;1999.90;999.90;;;;;;;;;;6304993;22;20267;-70
2022/07/01 11:12:56;;;;;;;1999.90;999.90;;;;;;;;;;6305415;22;20349;-71
2022/07/01 11:15:42;;;;;;;1999.90;999.90;;;;;;;;;;6305257;22;20505;-71
2022/07/01 11:18:28;;;;;;;1999.90;999.90;;;;;;;;;;6304834;22;20177;-71
2022/07/01 11:21:13;;;;;;;1999.90;999.90;;;;;;;;;;6305270;22;20532;-72
2022/07/01 11:23:58;;;;;;;1999.90;999.90;;;;;;;;;;6304232;22;20607;-71
2022/07/01 11:26:43;;;;;;;1999.90;999.90;;;;;;;;;;6305142;22;20516;-71
2022/07/01 11:29:29;;;;;;;1999.90;999.90;;;;;;;;;;6304432;22;20163;-71
2022/07/01 11:32:23;;;;;;;1999.90;999.90;;;;;;;;;;6305021;22;20286;-71
2022/07/01 11:41:19;;;;;;;1999.90;999.90;;;;;;;;;;6304513;22;20207;-70
2022/07/01 11:44:07;;;;;;;1999.90;999.90;;;;;;;;;;6304229;22;20261;-72
2022/07/01 11:46:52;;;;;;;1999.90;999.90;;;;;;;;;;6303489;22;20265;-71
2022/07/01 11:49:44;;;;;;;1999.90;999.90;;;;;;;;;;6303626;22;20238;-71
2022/07/01 11:52:31;;;;;;;1999.90;999.90;;;;;;;;;;6302969;22;20246;-71
2022/07/01 11:55:19;;;;;;;1999.90;999.90;;;;;;;;;;6302648;22;20168;-71
2022/07/01 11:58:05;;;;;;;1999.90;999.90;;;;;;;;;;6302645;22;20506;-71
2022/07/01 12:00:50;;;;;;;1999.90;999.90;;;;;;;;;;6304532;22;20957;-70
2022/07/01 12:03:35;;;;;;;1999.90;999.90;;;;;;;;;;6302546;22;20513;-71
2022/07/01 12:06:23;;;;;;;1999.90;999.90;;;;;;;;;;6304394;22;20164;-70
2022/07/01 12:09:12;;;;;;;1999.90;999.90;;;;;;;;;;6303588;22;20172;-70
2022/07/01 12:11:57;;;;;;;1999.90;999.90;;;;;;;;;;6304239;22;20917;-71
2022/07/01 12:14:49;;;;;;;1999.90;999.90;;;;;;;;;;6303554;22;20163;-71
2022/07/01 12:17:35;;;;;;;1999.90;999.90;;;;;;;;;;6304463;22;20214;-71
2022/07/01 12:20:31;;;;;;;1999.90;999.90;;;;;;;;;;6303912;22;20622;-71
2022/07/01 12:23:16;;;;;;;1999.90;999.90;;;;;;;;;;6304669;22;20187;-70
2022/07/01 12:26:04;;;;;;;1999.90;999.90;;;;;;;;;;6304993;22;20202;-71
2022/07/01 12:28:49;;;;;;;1999.90;999.90;;;;;;;;;;6305106;22;20214;-71
2022/07/01 12:31:34;;;;;;;1999.90;999.90;;;;;;;;;;6306201;22;20203;-71
2022/07/01 12:34:20;;;;;;;1999.90;999.90;;;;;;;;;;6306633;22;20159;-71
2022/07/01 12:37:09;;;;;;;1999.90;999.90;;;;;;;;;;6306459;22;20168;-71
2022/07/01 12:39:55;;;;;;;1999.90;999.90;;;;;;;;;;6306179;22;20214;-71
2022/07/01 12:42:44;;;;;;;1999.90;999.90;;;;;;;;;;6306343;22;20199;-71
2022/07/01 12:45:29;;;;;;;1999.90;999.90;;;;;;;;;;6306689;22;20196;-70
2022/07/01 12:48:14;;;;;;;1999.90;999.90;;;;;;;;;;6306097;22;20552;-70
2022/07/01 12:50:59;;;;;;;1999.90;999.90;;;;;;;;;;6304729;22;20366;-69
2022/07/01 12:53:44;;;;;;;1999.90;999.90;;;;;;;;;;6305640;22;20234;-70
2022/07/01 12:56:29;;;;;;;1999.90;999.90;;;;;;;;;;6305868;22;20164;-71
2022/07/01 12:59:16;;;;;;;1999.90;999.90;;;;;;;;;;6305566;22;20169;-72
2022/07/01 13:02:01;;;;;;;1999.90;999.90;;;;;;;;;;6305859;22;20281;-71
2022/07/01 13:04:46;;;;;;;1999.90;999.90;;;;;;;;;;6305705;22;20709;-70
2022/07/01 13:07:31;;;;;;;1999.90;999.90;;;;;;;;;;6304220;22;20370;-69
2022/07/01 13:10:16;;;;;;;1999.90;999.90;;;;;;;;;;6305389;22;20170;-71
2022/07/01 13:13:01;;;;;;;1999.90;999.90;;;;;;;;;;6305345;22;20169;-70
2022/07/01 13:15:48;;;;;;;1999.90;999.90;;;;;;;;;;6305487;22;20215;-70
2022/07/01 13:18:33;;;;;;;1999.90;999.90;;;;;;;;;;6305708;22;20188;-69
2022/07/01 13:21:18;;;;;;;1999.90;999.90;;;;;;;;;;6306088;22;20287;-70
2022/07/01 13:24:03;;;;;;;1999.90;999.90;;;;;;;;;;6306079;22;20191;-70
2022/07/01 13:26:48;;;;;;;1999.90;999.90;;;;;;;;;;6305987;22;20193;-69
2022/07/01 13:29:33;;;;;;;1999.90;999.90;;;;;;;;;;6305738;22;20164;-70
2022/07/01 13:32:20;;;;;;;1999.90;999.90;;;;;;;;;;6305678;22;20296;-70
2022/07/01 13:35:06;;;;;;;1999.90;999.90;;;;;;;;;;6306066;22;20175;-70
2022/07/01 13:37:51;;;;;;;1999.90;999.90;;;;;;;;;;6305084;22;20373;-72
2022/07/01 13:40:36;;;;;;;1999.90;999.90;;;;;;;;;;6304812;22;20215;-70
2022/07/01 13:43:21;;;;;;;1999.90;999.90;;;;;;;;;;6304609;22;20168;-70
2022/07/01 13:46:06;;;;;;;1999.90;999.90;;;;;;;;;;6305901;22;20606;-73
2022/07/01 13:48:53;;;;;;;1999.90;999.90;;;;;;;;;;6306126;22;20167;-70
2022/07/01 13:51:38;;;;;;;1999.90;999.90;;;;;;;;;;6311581;22;20228;-73
2022/07/01 13:54:23;;;;;;;1999.90;999.90;;;;;;;;;;6305809;22;20243;-72
2022/07/01 13:57:09;;;;;;;1999.90;999.90;;;;;;;;;;6305884;22;20188;-72
2022/07/01 13:59:55;;;;;;;1999.90;999.90;;;;;;;;;;6305679;22;20675;-70
2022/07/01 14:02:40;;;;;;;1999.90;999.90;;;;;;;;;;6305646;22;20225;-72
2022/07/01 14:05:27;;;;;;;1999.90;999.90;;;;;;;;;;6305781;22;20263;-71
2022/07/01 14:08:12;;;;;;;1999.90;999.90;;;;;;;;;;6305818;22;20509;-72
2022/07/01 14:10:57;;;;;;;1999.90;999.90;;;;;;;;;;6305686;22;20209;-72
2022/07/01 14:13:42;;;;;;;1999.90;999.90;;;;;;;;;;6305837;22;20165;-72
2022/07/01 14:16:29;;;;;;;1999.90;999.90;;;;;;;;;;6305850;22;20214;-71
2022/07/01 14:19:14;;;;;;;1999.90;999.90;;;;;;;;;;6305435;22;20170;-72
2022/07/01 14:22:01;;;;;;;1999.90;999.90;;;;;;;;;;6305769;22;20204;-71
2022/07/01 14:24:46;;;;;;;1999.90;999.90;;;;;;;;;;6305454;22;20440;-71
2022/07/01 14:27:30;;;;;;;1999.90;999.90;;;;;;;;;;6305696;22;20167;-72
2022/07/01 14:30:16;;;;;;;1999.90;999.90;;;;;;;;;;6305757;22;20178;-72
2022/07/01 14:33:01;;;;;;;1999.90;999.90;;;;;;;;;;6305751;22;20164;-71
2022/07/01 14:35:47;;;;;;;1999.90;999.90;;;;;;;;;;6305758;22;20165;-72
2022/07/01 14:38:33;;;;;;;1999.90;999.90;;;;;;;;;;6305278;22;20167;-71
2022/07/01 14:41:18;;;;;;;1999.90;999.90;;;;;;;;;;6305254;22;20468;-71
2022/07/01 14:44:03;;;;;;;1999.90;999.90;;;;;;;;;;6306470;22;20518;-71
2022/07/01 14:46:49;;;;;;;1999.90;999.90;;;;;;;;;;6307609;22;20253;-70
2022/07/01 14:49:35;;;;;;;1999.90;999.90;;;;;;;;;;6307444;22;20168;-71
2022/07/01 14:52:20;;;;;;;1999.90;999.90;;;;;;;;;;6307237;22;20296;-71
2022/07/01 14:55:07;;;;;;;1999.90;999.90;;;;;;;;;;6307379;22;20198;-72
2022/07/01 14:57:52;;;;;;;1999.90;999.90;;;;;;;;;;6306963;22;20164;-71
2022/07/01 15:00:37;;;;;;;1999.90;999.90;;;;;;;;;;6307247;22;20164;-71
2022/07/01 15:03:22;;;;;;;1999.90;999.90;;;;;;;;;;6307408;22;20166;-71
2022/07/01 15:06:07;;;;;;;1999.90;999.90;;;;;;;;;;6307311;22;20532;-71
2022/07/01 15:08:52;;;;;;;1999.90;999.90;;;;;;;;;;6307771;22;20663;-72
2022/07/01 15:11:39;;;;;;;1999.90;999.90;;;;;;;;;;6307316;22;20203;-70
2022/07/01 15:14:24;;;;;;;1999.90;999.90;;;;;;;;;;6307432;22;20238;-73
2022/07/01 15:17:09;;;;;;;1999.90;999.90;;;;;;;;;;6307350;22;20176;-72
2022/07/01 15:19:54;;;;;;;1999.90;999.90;;;;;;;;;;6306973;22;20170;-70
2022/07/01 15:22:39;;;;;;;1999.90;999.90;;;;;;;;;;6307101;22;20245;-72
2022/07/01 15:25:24;;;;;;;1999.90;999.90;;;;;;;;;;6307071;22;20190;-73
2022/07/01 15:28:14;;;;;;;1999.90;999.90;;;;;;;;;;6306714;22;20287;-70
2022/07/01 15:31:00;;;;;;;1999.90;999.90;;;;;;;;;;6307019;22;20246;-70
2022/07/01 15:33:45;;;;;;;1999.90;999.90;;;;;;;;;;6307155;22;20183;-71
2022/07/01 15:36:30;;;;;;;1999.90;999.90;;;;;;;;;;6306948;22;20190;-72
2022/07/01 15:39:15;;;;;;;1999.90;999.90;;;;;;;;;;6306905;22;20293;-70
2022/07/01 15:42:02;;;;;;;1999.90;999.90;;;;;;;;;;6307149;22;20711;-68
2022/07/01 15:44:48;;;;;;;1999.90;999.90;;;;;;;;;;6307015;22;20233;-70
2022/07/01 15:50:37;;;;;;;1999.90;999.90;;;;;;;;;;6307047;22;20216;-71
2022/07/01 15:53:22;;;;;;;1999.90;999.90;;;;;;;;;;6307005;22;20167;-71
2022/07/01 15:56:07;;;;;;;1999.90;999.90;;;;;;;;;;6306912;22;20634;-71
2022/07/01 15:58:52;;;;;;;1999.90;999.90;;;;;;;;;;6306622;22;20167;-70
2022/07/01 16:01:38;;;;;;;1999.90;999.90;;;;;;;;;;6305191;22;20381;-70
2022/07/01 16:04:27;;;;;;;1999.90;999.90;;;;;;;;;;6306839;22;20191;-71
2022/07/01 16:07:14;;;;;;;1999.90;999.90;;;;;;;;;;6306819;22;20618;-74
2022/07/01 16:10:02;;;;;;;1999.90;999.90;;;;;;;;;;6306637;22;20183;-71
2022/07/01 16:12:49;;;;;;;1999.90;999.90;;;;;;;;;;6306886;22;20168;-71
2022/07/01 16:15:35;;;;;;;1999.90;999.90;;;;;;;;;;6307064;22;20206;-70
2022/07/01 16:18:24;;;;;;;1999.90;999.90;;;;;;;;;;6306994;22;20213;-71
2022/07/01 16:21:10;;;;;;;1999.90;999.90;;;;;;;;;;6306724;22;20689;-72
2022/07/01 16:23:55;;;;;;;1999.90;999.90;;;;;;;;;;6306709;22;20167;-72
2022/07/01 16:26:41;;;;;;;1999.90;999.90;;;;;;;;;;6306710;22;20257;-72
2022/07/01 16:29:26;;;;;;;1999.90;999.90;;;;;;;;;;6306428;22;20176;-71
2022/07/01 16:32:11;;;;;;;1999.90;999.90;;;;;;;;;;6306658;22;20203;-71
2022/07/01 16:34:58;;;;;;;1999.90;999.90;;;;;;;;;;6306597;22;20245;-72
2022/07/01 16:37:46;;;;;;;1999.90;999.90;;;;;;;;;;6306457;22;20166;-72
2022/07/01 16:40:33;;;;;;;1999.90;999.90;;;;;;;;;;6306501;22;20626;-72
2022/07/01 16:43:20;;;;;;;1999.90;999.90;;;;;;;;;;6306612;22;20239;-72
2022/07/01 16:46:06;;;;;;;1999.90;999.90;;;;;;;;;;6306531;22;20639;-72
2022/07/01 16:48:51;;;;;;;1999.90;999.90;;;;;;;;;;6305733;22;20374;-70
2022/07/01 16:51:40;;;;;;;1999.90;999.90;;;;;;;;;;6306262;22;20199;-70
2022/07/01 16:54:26;;;;;;;1999.90;999.90;;;;;;;;;;6306507;22;20230;-71
2022/07/01 16:57:13;;;;;;;1999.90;999.90;;;;;;;;;;6306870;22;20167;-73
2022/07/01 16:59:58;;;;;;;1999.90;999.90;;;;;;;;;;6306041;22;20180;-73
2022/07/01 17:02:43;;;;;;;1999.90;999.90;;;;;;;;;;6306170;22;20211;-72
2022/07/01 17:05:28;;;;;;;1999.90;999.90;;;;;;;;;;6305081;22;20394;-72
2022/07/01 17:08:15;;;;;;;1999.90;999.90;;;;;;;;;;6305868;22;20167;-72
2022/07/01 17:11:01;;;;;;;1999.90;999.90;;;;;;;;;;6306277;22;20541;-72
2022/07/01 17:13:47;;;;;;;1999.90;999.90;;;;;;;;;;6306385;22;20236;-72
2022/07/01 17:16:32;;;;;;;1999.90;999.90;;;;;;;;;;6306253;22;20206;-72
2022/07/01 17:19:18;;;;;;;1999.90;999.90;;;;;;;;;;6305795;22;20180;-72
2022/07/01 17:22:04;;;;;;;1999.90;999.90;;;;;;;;;;6306139;22;20203;-72
2022/07/01 17:24:54;;;;;;;1999.90;999.90;;;;;;;;;;6306125;22;20516;-72
2022/07/01 17:27:47;;;;;;;1999.90;999.90;;;;;;;;;;6305938;22;20167;-72
2022/07/01 17:30:34;;;;;;;1999.90;999.90;;;;;;;;;;6306078;22;20250;-72
2022/07/01 17:33:19;;;;;;;1999.90;999.90;;;;;;;;;;6306083;22;20237;-71
2022/07/01 17:36:07;;;;;;;1999.90;999.90;;;;;;;;;;6304804;22;20370;-72
2022/07/01 17:38:53;;;;;;;1999.90;999.90;;;;;;;;;;6305722;22;20171;-72
2022/07/01 17:41:40;;;;;;;1999.90;999.90;;;;;;;;;;6305919;22;20206;-72
2022/07/01 17:44:27;;;;;;;1999.90;999.90;;;;;;;;;;6306076;22;20565;-72
2022/07/01 17:47:13;;;;;;;1999.90;999.90;;;;;;;;;;6305989;22;20680;-72
2022/07/01 17:49:58;;;;;;;1999.90;999.90;;;;;;;;;;6305619;22;20657;-73
2022/07/01 17:52:46;;;;;;;1999.90;999.90;;;;;;;;;;6304125;22;20357;-73
2022/07/01 17:55:31;;;;;;;1999.90;999.90;;;;;;;;;;6305917;22;20206;-72
2022/07/01 17:58:20;;;;;;;1999.90;999.90;;;;;;;;;;6305583;22;20183;-73
2022/07/01 18:01:05;;;;;;;1999.90;999.90;;;;;;;;;;6305694;22;20213;-72
2022/07/01 18:03:50;;;;;;;1999.90;999.90;;;;;;;;;;6305865;22;20209;-71
2022/07/01 18:06:36;;;;;;;1999.90;999.90;;;;;;;;;;6305789;22;20252;-72
2022/07/01 18:09:21;;;;;;;1999.90;999.90;;;;;;;;;;6306180;22;20677;-72
2022/07/01 18:12:11;;;;;;;1999.90;999.90;;;;;;;;;;6306281;22;20218;-72
2022/07/01 18:15:03;;;;;;;1999.90;999.90;;;;;;;;;;6306446;22;20611;-72
2022/07/01 18:17:52;;;;;;;1999.90;999.90;;;;;;;;;;6306699;22;20190;-71
2022/07/01 18:20:41;;;;;;;1999.90;999.90;;;;;;;;;;6308003;22;20170;-73
2022/07/01 18:23:27;;;;;;;1999.90;999.90;;;;;;;;;;6308035;22;20171;-73
2022/07/01 18:26:14;;;;;;;1999.90;999.90;;;;;;;;;;6307919;22;20191;-73
2022/07/01 18:29:00;;;;;;;1999.90;999.90;;;;;;;;;;6307616;22;20282;-72
2022/07/01 18:31:48;;;;;;;1999.90;999.90;;;;;;;;;;6307778;22;20217;-71
2022/07/01 18:34:38;;;;;;;1999.90;999.90;;;;;;;;;;6307877;22;20167;-72
2022/07/01 18:37:25;;;;;;;1999.90;999.90;;;;;;;;;;6307166;22;20416;-72
2022/07/01 18:40:11;;;;;;;1999.90;999.90;;;;;;;;;;6307635;22;20564;-73
2022/07/01 18:42:56;;;;;;;1999.90;999.90;;;;;;;;;;6308174;22;20170;-72
2022/07/01 18:45:41;;;;;;;1999.90;999.90;;;;;;;;;;6307653;22;20187;-69
2022/07/01 18:48:28;;;;;;;1999.90;999.90;;;;;;;;;;6307688;22;20174;-71
2022/07/01 18:51:13;;;;;;;1999.90;999.90;;;;;;;;;;6307615;22;20202;-70
2022/07/01 18:53:58;;;;;;;1999.90;999.90;;;;;;;;;;6307729;22;20637;-72
2022/07/01 18:56:42;;;;;;;1999.90;999.90;;;;;;;;;;6308055;22;20178;-70
2022/07/01 18:59:27;;;;;;;1999.90;999.90;;;;;;;;;;6307262;22;20170;-72
2022/07/01 19:02:15;;;;;;;1999.90;999.90;;;;;;;;;;6307392;22;20318;-72
2022/07/01 19:05:02;;;;;;;1999.90;999.90;;;;;;;;;;6307566;22;20184;-72
2022/07/01 19:07:47;;;;;;;1999.90;999.90;;;;;;;;;;6307308;22;20183;-72
2022/07/01 19:10:32;;;;;;;1999.90;999.90;;;;;;;;;;6307834;22;20247;-72
2022/07/01 19:13:17;;;;;;;1999.90;999.90;;;;;;;;;;6307515;22;20637;-72
2022/07/01 19:16:03;;;;;;;1999.90;999.90;;;;;;;;;;6306720;22;20229;-72
2022/07/01 19:18:49;;;;;;;1999.90;999.90;;;;;;;;;;6306244;22;20211;-72
2022/07/01 19:21:35;;;;;;;1999.90;999.90;;;;;;;;;;6304061;22;20244;-72
2022/07/01 19:24:20;;;;;;;1999.90;999.90;;;;;;;;;;6304808;22;20680;-72
2022/07/01 19:27:05;;;;;;;1999.90;999.90;;;;;;;;;;6303414;22;20498;-71
2022/07/01 19:29:50;;;;;;;1999.90;999.90;;;;;;;;;;6303643;22;20186;-73
2022/07/01 19:32:35;;;;;;;1999.90;999.90;;;;;;;;;;6304653;22;20210;-71
2022/07/01 19:35:22;;;;;;;1999.90;999.90;;;;;;;;;;6303986;22;20175;-71
2022/07/01 19:38:10;;;;;;;1999.90;999.90;;;;;;;;;;6303557;22;20223;-71
2022/07/01 19:40:55;;;;;;;1999.90;999.90;;;;;;;;;;6304750;22;20221;-71
2022/07/01 19:43:40;;;;;;;1999.90;999.90;;;;;;;;;;6305094;22;20177;-70
2022/07/01 19:46:25;;;;;;;1999.90;999.90;;;;;;;;;;6304805;22;20282;-71
2022/07/01 19:49:10;;;;;;;1999.90;999.90;;;;;;;;;;6304740;22;20727;-71